Time;durP1;ratioP1;P1;durP2;ratioP2;P2;SDS_P1;SDS_P2;PMS_P1;PMS_P2;Temp;Humidity;BMP_temperature;BMP_pressure;BME280_temperature;BME280_humidity;BME280_pressure;Samples;Min_cycle;Max_cycle;Signal;HPM_P1;HPM_P2
2021/08/26 00:06:49;;;;;;;30.50;19.75;;;16.70;59.00;;;;;;5073686;28;20379;-75
2021/08/26 00:09:17;;;;;;;36.45;20.33;;;16.70;59.60;;;;;;5072937;28;20390;-75
2021/08/26 00:11:44;;;;;;;33.97;21.57;;;16.70;60.10;;;;;;5072848;28;20394;-75
2021/08/26 00:14:10;;;;;;;31.15;20.23;;;16.70;59.90;;;;;;5073038;28;20471;-74
2021/08/26 00:16:38;;;;;;;33.85;22.35;;;16.70;60.50;;;;;;5072705;28;20437;-74
2021/08/26 00:19:03;;;;;;;37.25;22.17;;;16.60;61.10;;;;;;5072146;28;20396;-76
2021/08/26 00:21:30;;;;;;;32.47;21.05;;;16.50;62.60;;;;;;5072444;28;20392;-74
2021/08/26 00:23:55;;;;;;;33.17;21.73;;;16.50;63.70;;;;;;5071801;28;20414;-75
2021/08/26 00:26:21;;;;;;;31.50;20.80;;;16.50;65.40;;;;;;5072277;28;20388;-74
2021/08/26 00:28:46;;;;;;;33.17;21.30;;;16.50;66.10;;;;;;5089028;28;20402;-75
2021/08/26 00:31:12;;;;;;;32.43;21.20;;;16.40;67.00;;;;;;5092273;28;20378;-74
2021/08/26 00:33:37;;;;;;;35.97;22.97;;;16.30;67.60;;;;;;5064363;28;20433;-75
2021/08/26 00:36:03;;;;;;;36.53;22.92;;;16.30;69.50;;;;;;5080763;28;20455;-76
2021/08/26 00:38:29;;;;;;;30.73;21.33;;;16.30;70.70;;;;;;5091997;28;20477;-77
2021/08/26 00:40:58;;;;;;;35.60;23.30;;;16.40;71.10;;;;;;5076609;28;20952;-77
2021/08/26 00:43:25;;;;;;;37.20;22.98;;;16.40;70.80;;;;;;5071590;28;20407;-77
2021/08/26 00:45:51;;;;;;;35.03;22.02;;;16.50;70.40;;;;;;5071462;28;20423;-77
2021/08/26 00:48:20;;;;;;;34.08;21.23;;;16.50;71.80;;;;;;5071506;28;20422;-78
2021/08/26 00:50:47;;;;;;;33.85;21.40;;;16.50;74.80;;;;;;5071716;28;20391;-77
2021/08/26 00:53:13;;;;;;;34.25;21.58;;;16.40;76.70;;;;;;5072508;28;20384;-75
2021/08/26 00:55:38;;;;;;;34.33;21.83;;;16.30;79.30;;;;;;5071420;28;20937;-77
2021/08/26 00:58:04;;;;;;;36.63;21.13;;;16.20;81.70;;;;;;5071211;28;20803;-74
2021/08/26 01:00:30;;;;;;;34.80;20.63;;;16.20;84.30;;;;;;5071674;28;20887;-76
2021/08/26 01:03:12;;;;;;;34.97;20.60;;;16.20;86.70;;;;;;5071667;28;20407;-77
2021/08/26 01:05:47;;;;;;;32.78;19.83;;;16.30;85.80;;;;;;5071533;28;20517;-77
2021/08/26 01:08:18;;;;;;;30.30;19.20;;;16.30;87.70;;;;;;5071164;28;20383;-74
2021/08/26 01:10:50;;;;;;;30.38;18.20;;;16.10;90.90;;;;;;5070771;28;20380;-74
2021/08/26 01:13:16;;;;;;;31.00;17.90;;;16.00;93.00;;;;;;5071175;28;20775;-76
2021/08/26 01:16:09;;;;;;;27.40;16.10;;;16.00;93.00;;;;;;5071068;28;20574;-76
2021/08/26 01:18:39;;;;;;;21.95;14.57;;;16.00;93.70;;;;;;5070840;28;20388;-76
2021/08/26 01:21:16;;;;;;;21.33;14.40;;;15.90;95.10;;;;;;5071099;28;20477;-76
2021/08/26 01:23:46;;;;;;;21.10;13.93;;;15.90;96.90;;;;;;5053340;28;20925;-76
2021/08/26 01:26:16;;;;;;;20.02;14.40;;;15.90;97.50;;;;;;5070832;28;20415;-77
2021/08/26 01:28:46;;;;;;;19.30;13.00;;;15.90;97.90;;;;;;5087433;28;20373;-76
2021/08/26 01:31:11;;;;;;;19.45;12.70;;;15.90;98.50;;;;;;5090994;28;20855;-76
2021/08/26 01:33:37;;;;;;;19.50;12.07;;;15.90;98.50;;;;;;5081378;28;20384;-76
2021/08/26 01:36:05;;;;;;;16.50;11.60;;;16.00;98.50;;;;;;5079181;28;20398;-77
2021/08/26 01:38:30;;;;;;;15.85;10.77;;;16.10;98.60;;;;;;5091064;28;20386;-76
2021/08/26 01:40:56;;;;;;;13.82;10.10;;;16.20;97.20;;;;;;5075376;28;20390;-76
2021/08/26 01:43:23;;;;;;;13.90;9.95;;;16.20;97.80;;;;;;5070723;28;20888;-75
2021/08/26 01:45:49;;;;;;;14.35;9.88;;;16.20;99.00;;;;;;5070523;28;20388;-76
2021/08/26 01:48:19;;;;;;;14.70;9.45;;;16.30;93.90;;;;;;5070546;28;20376;-75
2021/08/26 01:50:49;;;;;;;10.85;6.90;;;16.20;96.60;;;;;;5070594;28;20380;-75
2021/08/26 01:53:15;;;;;;;9.53;6.90;;;15.90;89.90;;;;;;5070734;28;20402;-75
2021/08/26 01:55:40;;;;;;;12.52;6.15;;;15.70;89.30;;;;;;5070411;28;20772;-75
2021/08/26 01:58:10;;;;;;;11.52;6.05;;;15.50;89.10;;;;;;5069137;28;20583;-76
2021/08/26 02:00:36;;;;;;;9.63;6.38;;;15.50;90.90;;;;;;5070687;28;20793;-77
2021/08/26 02:03:01;;;;;;;14.80;5.63;;;15.40;92.30;;;;;;5070498;28;20481;-76
2021/08/26 02:05:27;;;;;;;11.35;5.10;;;15.50;91.40;;;;;;5052461;28;20910;-76
2021/08/26 02:07:53;;;;;;;8.23;4.47;;;15.50;88.70;;;;;;5070099;28;20898;-76
2021/08/26 02:10:18;;;;;;;10.88;5.45;;;15.50;89.50;;;;;;5070525;28;20383;-74
2021/08/26 02:12:44;;;;;;;8.00;4.30;;;15.50;89.20;;;;;;5070452;28;20787;-76
2021/08/26 02:15:10;;;;;;;10.30;4.47;;;15.50;87.30;;;;;;5070333;28;20760;-76
2021/08/26 02:17:36;;;;;;;10.50;4.80;;;15.50;88.90;;;;;;5070345;28;20441;-76
2021/08/26 02:20:04;;;;;;;9.18;3.95;;;15.50;89.80;;;;;;5069105;28;20379;-76
2021/08/26 02:22:29;;;;;;;11.50;4.43;;;15.60;87.30;;;;;;5073627;28;20379;-77
2021/08/26 02:24:55;;;;;;;10.40;4.53;;;15.60;86.10;;;;;;5074718;28;20764;-76
2021/08/26 02:27:20;;;;;;;10.27;4.47;;;15.60;86.80;;;;;;5080227;28;20746;-77
2021/08/26 02:29:46;;;;;;;10.20;4.00;;;15.60;87.00;;;;;;5076704;28;20377;-76
2021/08/26 02:32:11;;;;;;;11.33;4.13;;;15.60;85.80;;;;;;5095497;28;20378;-77
2021/08/26 02:34:37;;;;;;;10.10;4.80;;;15.70;86.90;;;;;;5076753;28;20478;-77
2021/08/26 02:37:03;;;;;;;13.30;4.03;;;15.60;85.80;;;;;;5091069;28;20467;-76
2021/08/26 02:39:28;;;;;;;6.85;4.40;;;15.70;83.80;;;;;;5091065;28;20466;-76
2021/08/26 02:41:54;;;;;;;8.45;4.13;;;15.70;83.50;;;;;;5073964;28;20383;-77
2021/08/26 02:44:19;;;;;;;9.10;4.53;;;15.80;83.40;;;;;;5074268;28;20976;-77
2021/08/26 02:46:45;;;;;;;11.77;3.87;;;15.80;82.80;;;;;;5075254;28;20406;-77
2021/08/26 02:49:10;;;;;;;8.97;3.80;;;16.00;79.90;;;;;;5055865;28;20383;-75
2021/08/26 02:51:36;;;;;;;8.50;4.27;;;16.00;78.50;;;;;;5073825;28;20379;-75
2021/08/26 02:54:02;;;;;;;12.70;4.30;;;15.90;77.90;;;;;;5073758;28;20868;-75
2021/08/26 02:56:27;;;;;;;6.55;4.22;;;15.90;78.90;;;;;;5073730;28;20372;-75
2021/08/26 02:58:53;;;;;;;11.63;4.30;;;15.90;78.30;;;;;;5073395;28;20472;-75
2021/08/26 03:01:18;;;;;;;11.15;4.65;;;15.80;77.70;;;;;;5073562;28;20384;-74
2021/08/26 03:03:44;;;;;;;10.97;4.50;;;15.80;79.20;;;;;;5073772;28;20821;-75
2021/08/26 03:06:10;;;;;;;11.10;4.53;;;15.80;80.70;;;;;;5073580;28;20383;-76
2021/08/26 03:08:36;;;;;;;9.65;4.80;;;15.80;80.30;;;;;;5073402;28;20376;-76
2021/08/26 03:11:02;;;;;;;14.27;4.50;;;15.80;77.30;;;;;;5073230;28;20878;-76
2021/08/26 03:13:27;;;;;;;10.18;4.25;;;15.80;71.60;;;;;;5073575;28;20441;-75
2021/08/26 03:15:53;;;;;;;13.50;4.70;;;15.80;67.70;;;;;;5073221;28;20470;-75
2021/08/26 03:18:18;;;;;;;14.87;5.40;;;15.80;66.10;;;;;;5073137;28;20427;-76
2021/08/26 03:20:44;;;;;;;15.07;4.67;;;15.80;67.10;;;;;;5073476;28;20379;-76
2021/08/26 03:23:10;;;;;;;17.90;5.30;;;15.80;61.00;;;;;;5073478;28;20395;-75
2021/08/26 03:25:36;;;;;;;14.93;5.00;;;15.90;60.50;;;;;;5073202;28;20419;-76
2021/08/26 03:28:01;;;;;;;15.77;5.20;;;15.90;61.80;;;;;;5083819;28;20386;-75
2021/08/26 03:30:27;;;;;;;16.03;4.90;;;15.90;59.90;;;;;;5093629;28;20378;-75
2021/08/26 03:32:52;;;;;;;12.80;4.80;;;15.90;60.20;;;;;;5089413;28;20466;-76
2021/08/26 03:35:19;;;;;;;13.70;5.13;;;15.90;60.60;;;;;;5075436;28;20558;-76
2021/08/26 03:37:45;;;;;;;10.80;4.78;;;15.90;62.60;;;;;;5093126;28;20414;-76
2021/08/26 03:40:11;;;;;;;17.17;5.78;;;15.90;64.50;;;;;;5084097;28;20845;-76
2021/08/26 03:42:36;;;;;;;24.58;5.68;;;15.90;63.70;;;;;;5073063;28;20432;-76
2021/08/26 03:45:03;;;;;;;13.40;5.30;;;15.90;64.90;;;;;;5073383;28;20383;-76
2021/08/26 03:47:29;;;;;;;13.55;5.13;;;15.90;63.60;;;;;;5072727;28;20383;-76
2021/08/26 03:49:54;;;;;;;11.02;4.90;;;15.90;66.60;;;;;;5055013;28;20388;-76
2021/08/26 03:52:20;;;;;;;12.93;4.83;;;15.90;66.80;;;;;;5072830;28;20372;-76
2021/08/26 03:54:45;;;;;;;16.70;5.57;;;15.90;65.00;;;;;;5072648;28;20525;-76
2021/08/26 03:57:11;;;;;;;13.90;5.40;;;15.90;65.30;;;;;;5074515;28;20387;-75
2021/08/26 03:59:36;;;;;;;16.90;5.30;;;15.90;67.50;;;;;;5075974;28;20394;-75
2021/08/26 04:02:02;;;;;;;15.35;5.90;;;15.90;65.80;;;;;;5076313;28;20394;-76
2021/08/26 04:04:28;;;;;;;14.63;5.15;;;15.90;66.30;;;;;;5076630;28;20464;-75
2021/08/26 04:06:53;;;;;;;14.15;5.35;;;15.80;64.30;;;;;;5077590;28;20443;-75
2021/08/26 04:09:19;;;;;;;11.00;4.90;;;15.90;65.90;;;;;;5057428;28;20471;-76
2021/08/26 04:11:44;;;;;;;15.90;4.50;;;15.80;65.90;;;;;;5072499;28;20403;-75
2021/08/26 04:14:10;;;;;;;13.67;5.33;;;15.80;62.40;;;;;;5072711;28;20416;-76
2021/08/26 04:16:35;;;;;;;14.70;4.78;;;15.80;64.20;;;;;;5073045;28;20895;-77
2021/08/26 04:19:01;;;;;;;15.30;5.28;;;15.80;60.90;;;;;;5073896;28;20429;-75
2021/08/26 04:21:26;;;;;;;14.93;5.20;;;15.80;57.90;;;;;;5072408;28;20391;-75
2021/08/26 04:23:52;;;;;;;13.90;5.00;;;15.70;56.70;;;;;;5071865;28;20406;-75
2021/08/26 04:26:18;;;;;;;12.23;4.90;;;15.70;55.70;;;;;;5053851;28;20402;-76
2021/08/26 04:28:43;;;;;;;16.33;4.63;;;15.70;55.00;;;;;;5088458;28;20382;-75
2021/08/26 04:31:09;;;;;;;19.15;4.50;;;15.70;54.70;;;;;;5074214;28;20443;-76
2021/08/26 04:33:35;;;;;;;15.10;5.00;;;15.70;54.10;;;;;;5082651;28;20900;-76
2021/08/26 04:36:01;;;;;;;14.80;4.60;;;15.70;54.30;;;;;;5079899;28;20437;-76
2021/08/26 04:38:26;;;;;;;13.40;4.60;;;15.80;51.70;;;;;;5091970;28;20850;-75
2021/08/26 04:40:52;;;;;;;13.00;4.83;;;15.70;51.90;;;;;;5077140;28;20442;-75
2021/08/26 04:43:18;;;;;;;9.75;4.40;;;15.70;52.60;;;;;;5071333;28;20435;-75
2021/08/26 04:45:43;;;;;;;15.53;4.70;;;15.80;53.40;;;;;;5071134;28;20415;-75
2021/08/26 04:48:09;;;;;;;11.77;4.10;;;15.80;52.50;;;;;;5053251;28;20524;-76
2021/08/26 04:50:34;;;;;;;10.00;3.70;;;15.80;50.40;;;;;;5053756;28;20384;-75
2021/08/26 04:53:00;;;;;;;10.45;3.30;;;15.80;48.10;;;;;;5072044;28;21047;-75
2021/08/26 04:55:26;;;;;;;11.27;4.00;;;15.70;47.60;;;;;;5073583;28;20410;-75
2021/08/26 04:57:51;;;;;;;8.60;3.50;;;15.70;47.20;;;;;;5071127;28;20383;-75
2021/08/26 05:00:17;;;;;;;11.23;3.90;;;15.70;47.30;;;;;;5071611;28;20405;-75
2021/08/26 05:02:42;;;;;;;15.80;5.00;;;15.70;46.40;;;;;;5071203;28;20379;-74
2021/08/26 05:05:09;;;;;;;11.93;4.10;;;15.70;46.70;;;;;;5071090;28;20394;-74
2021/08/26 05:07:34;;;;;;;14.68;4.40;;;15.70;46.40;;;;;;5070881;28;20447;-74
2021/08/26 05:10:00;;;;;;;15.90;4.45;;;15.70;48.00;;;;;;5071137;28;20484;-76
2021/08/26 05:12:26;;;;;;;15.95;4.80;;;15.70;46.70;;;;;;5053896;28;20679;-75
2021/08/26 05:14:51;;;;;;;17.58;5.07;;;15.70;48.00;;;;;;5073330;28;20445;-75
2021/08/26 05:17:18;;;;;;;11.70;4.65;;;15.80;48.80;;;;;;5070786;28;20437;-74
2021/08/26 05:19:43;;;;;;;13.13;4.85;;;15.80;49.70;;;;;;5071711;28;20379;-75
2021/08/26 05:22:09;;;;;;;16.02;4.70;;;15.80;49.40;;;;;;5071254;28;20390;-74
2021/08/26 05:24:34;;;;;;;18.52;5.18;;;15.80;50.50;;;;;;5071420;28;20536;-74
2021/08/26 05:27:00;;;;;;;20.08;5.15;;;15.80;50.80;;;;;;5056054;28;20426;-76
2021/08/26 05:29:26;;;;;;;22.77;4.95;;;15.80;50.20;;;;;;5092348;28;20716;-76
2021/08/26 05:31:52;;;;;;;14.60;4.40;;;15.80;47.30;;;;;;5092726;28;20381;-75
2021/08/26 05:34:17;;;;;;;20.52;4.88;;;15.90;47.00;;;;;;5058867;28;20406;-76
2021/08/26 05:36:43;;;;;;;11.88;4.32;;;15.90;47.10;;;;;;5086457;28;20432;-73
2021/08/26 05:39:08;;;;;;;13.70;4.45;;;15.90;45.40;;;;;;5091177;28;20685;-76
2021/08/26 05:41:34;;;;;;;16.67;5.20;;;15.90;44.40;;;;;;5071265;28;20478;-75
2021/08/26 05:44:00;;;;;;;16.00;5.00;;;16.00;44.60;;;;;;5070626;28;20461;-75
2021/08/26 05:46:25;;;;;;;17.50;4.90;;;16.00;43.80;;;;;;5071007;28;20807;-74
2021/08/26 05:48:51;;;;;;;14.60;3.80;;;16.00;44.10;;;;;;5070299;28;20380;-75
2021/08/26 05:51:16;;;;;;;15.45;4.95;;;16.00;39.60;;;;;;5070659;28;20384;-75
2021/08/26 05:53:42;;;;;;;13.63;3.60;;;16.00;41.90;;;;;;5070405;28;20380;-76
2021/08/26 05:56:07;;;;;;;15.97;4.00;;;16.10;41.00;;;;;;5069900;28;20396;-75
2021/08/26 05:58:33;;;;;;;16.37;3.87;;;16.10;40.60;;;;;;5069945;28;20392;-76
2021/08/26 06:00:58;;;;;;;17.50;3.80;;;16.20;40.00;;;;;;5069847;28;20406;-76
2021/08/26 06:03:24;;;;;;;9.60;2.47;;;16.20;40.30;;;;;;5070370;28;20536;-76
2021/08/26 06:05:49;;;;;;;12.15;3.33;;;16.10;38.80;;;;;;5070109;28;20402;-76
2021/08/26 06:08:15;;;;;;;15.48;3.65;;;16.20;39.80;;;;;;5069714;28;20415;-76
2021/08/26 06:10:41;;;;;;;13.30;4.00;;;16.30;39.60;;;;;;5070219;28;20763;-75
2021/08/26 06:13:06;;;;;;;10.40;3.47;;;16.30;38.70;;;;;;5070717;28;20875;-75
2021/08/26 06:15:32;;;;;;;10.77;3.20;;;16.20;38.90;;;;;;5072020;28;20382;-75
2021/08/26 06:17:58;;;;;;;13.32;3.80;;;16.30;39.00;;;;;;5070820;28;20876;-75
2021/08/26 06:20:23;;;;;;;17.05;4.40;;;16.40;38.70;;;;;;5053279;28;20478;-76
2021/08/26 06:22:49;;;;;;;11.48;3.70;;;16.40;38.10;;;;;;5071931;28;20783;-76
2021/08/26 06:25:15;;;;;;;12.85;3.78;;;16.50;38.50;;;;;;5055066;28;20404;-76
2021/08/26 06:27:41;;;;;;;11.00;4.30;;;16.50;38.70;;;;;;5089395;28;20504;-76
2021/08/26 06:30:09;;;;;;;16.40;4.43;;;16.50;40.00;;;;;;5091461;28;20459;-78
2021/08/26 06:32:34;;;;;;;18.17;5.22;;;16.50;41.00;;;;;;5092007;28;20798;-77
2021/08/26 06:35:02;;;;;;;14.87;4.40;;;16.60;41.80;;;;;;5091806;28;20394;-77
2021/08/26 06:37:28;;;;;;;19.60;5.30;;;16.60;42.80;;;;;;5072361;28;20702;-77
2021/08/26 06:39:53;;;;;;;20.40;5.20;;;16.70;43.50;;;;;;5073487;28;20400;-77
2021/08/26 06:42:19;;;;;;;14.32;4.82;;;16.70;44.70;;;;;;5083753;28;20390;-77
2021/08/26 06:44:45;;;;;;;14.80;4.30;;;16.50;45.80;;;;;;5092597;28;20424;-77
2021/08/26 06:47:10;;;;;;;16.20;4.43;;;16.30;47.60;;;;;;5091954;28;20405;-78
2021/08/26 06:49:36;;;;;;;17.95;5.20;;;16.30;49.10;;;;;;5091981;28;20390;-78
2021/08/26 06:52:02;;;;;;;16.80;5.00;;;16.30;49.40;;;;;;5091009;28;20389;-76
2021/08/26 06:54:28;;;;;;;15.55;4.85;;;16.40;49.90;;;;;;5071561;28;20389;-75
2021/08/26 06:56:53;;;;;;;17.95;5.55;;;16.50;50.30;;;;;;5089192;28;20751;-75
2021/08/26 06:59:19;;;;;;;16.00;4.90;;;16.70;48.70;;;;;;5089259;28;20482;-75
2021/08/26 07:01:45;;;;;;;23.92;5.80;;;16.70;47.90;;;;;;5089271;28;20764;-75
2021/08/26 07:04:10;;;;;;;26.67;5.90;;;16.60;49.40;;;;;;5089571;28;20405;-75
2021/08/26 07:06:36;;;;;;;18.00;5.40;;;16.70;49.00;;;;;;5089333;28;20374;-74
2021/08/26 07:09:02;;;;;;;20.43;6.27;;;16.60;49.50;;;;;;5093116;28;20449;-76
2021/08/26 07:11:27;;;;;;;18.42;6.15;;;16.60;49.40;;;;;;5086520;28;20386;-75
2021/08/26 07:13:53;;;;;;;18.63;6.17;;;16.60;48.30;;;;;;5093050;28;20394;-76
2021/08/26 07:16:18;;;;;;;46.93;7.50;;;16.60;51.60;;;;;;5087522;28;20459;-77
2021/08/26 07:18:44;;;;;;;25.15;6.03;;;16.50;50.20;;;;;;5074401;28;20555;-74
2021/08/26 07:21:10;;;;;;;18.95;5.07;;;16.40;49.90;;;;;;5093222;28;20390;-75
2021/08/26 07:23:36;;;;;;;20.13;5.50;;;16.30;48.70;;;;;;5093569;28;20466;-75
2021/08/26 07:26:01;;;;;;;22.15;5.50;;;16.30;50.00;;;;;;5093518;28;20771;-75
2021/08/26 07:28:27;;;;;;;23.73;6.60;;;16.40;49.00;;;;;;5093604;28;20424;-75
2021/08/26 07:30:53;;;;;;;21.20;5.40;;;16.50;49.10;;;;;;5093517;28;20378;-75
2021/08/26 07:33:18;;;;;;;21.60;5.67;;;16.60;46.70;;;;;;5093445;28;20424;-74
2021/08/26 07:35:44;;;;;;;17.90;4.80;;;16.70;46.90;;;;;;5087290;28;20406;-75
2021/08/26 07:38:09;;;;;;;13.93;4.07;;;16.80;44.60;;;;;;5087195;28;20448;-74
2021/08/26 07:40:35;;;;;;;22.47;5.00;;;16.80;43.60;;;;;;5092329;28;20445;-76
2021/08/26 07:43:01;;;;;;;19.63;5.93;;;16.80;44.00;;;;;;5093157;28;20401;-75
2021/08/26 07:45:26;;;;;;;13.73;5.38;;;16.80;45.10;;;;;;5091901;28;20732;-75
2021/08/26 07:47:52;;;;;;;16.83;5.55;;;16.60;45.10;;;;;;5079465;28;20384;-74
2021/08/26 07:50:20;;;;;;;25.27;5.70;;;16.80;46.60;;;;;;5054905;28;20479;-74
2021/08/26 07:52:45;;;;;;;26.00;5.47;;;16.90;45.40;;;;;;5080608;28;20394;-75
2021/08/26 07:55:11;;;;;;;15.73;5.30;;;16.90;44.60;;;;;;5093109;28;20431;-74
2021/08/26 07:57:37;;;;;;;14.40;4.67;;;16.90;44.00;;;;;;5075040;28;20399;-75
2021/08/26 08:00:03;;;;;;;16.57;5.80;;;17.10;44.00;;;;;;5074666;28;20802;-75
2021/08/26 08:02:29;;;;;;;17.55;5.05;;;17.20;42.50;;;;;;5075181;28;20423;-75
2021/08/26 08:04:55;;;;;;;15.43;4.70;;;17.40;40.90;;;;;;5074587;28;20421;-75
2021/08/26 08:07:21;;;;;;;16.90;5.35;;;17.40;41.10;;;;;;5091853;28;20394;-74
2021/08/26 08:09:46;;;;;;;18.55;5.22;;;17.40;40.70;;;;;;5086395;28;20388;-76
2021/08/26 08:12:12;;;;;;;14.25;4.72;;;17.40;41.10;;;;;;5088430;28;20473;-74
2021/08/26 08:14:39;;;;;;;13.77;4.20;;;17.50;40.10;;;;;;5092292;28;20461;-74
2021/08/26 08:17:05;;;;;;;13.02;3.60;;;17.50;40.00;;;;;;5092215;28;20473;-74
2021/08/26 08:19:30;;;;;;;19.83;4.50;;;17.30;40.10;;;;;;5090666;28;20579;-75
2021/08/26 08:21:56;;;;;;;22.13;4.72;;;17.10;42.90;;;;;;5091361;28;20382;-74
2021/08/26 08:24:22;;;;;;;14.43;4.65;;;17.00;43.70;;;;;;5091511;28;20413;-74
2021/08/26 08:26:47;;;;;;;10.50;3.93;;;16.90;45.10;;;;;;5091579;28;20740;-75
2021/08/26 08:29:13;;;;;;;12.57;4.23;;;16.70;44.40;;;;;;5091616;28;20878;-75
2021/08/26 08:31:38;;;;;;;14.70;4.70;;;16.80;45.30;;;;;;5092367;28;20382;-74
2021/08/26 08:34:04;;;;;;;13.75;4.43;;;16.80;45.40;;;;;;5093601;28;20879;-75
2021/08/26 08:36:29;;;;;;;14.85;4.30;;;16.80;45.20;;;;;;5080608;28;20889;-77
2021/08/26 08:38:55;;;;;;;11.43;4.03;;;16.80;46.20;;;;;;5066564;28;20396;-75
2021/08/26 08:41:21;;;;;;;16.73;4.40;;;16.60;50.70;;;;;;5055625;28;20383;-75
2021/08/26 08:43:48;;;;;;;14.35;4.53;;;16.30;52.60;;;;;;5082121;28;20509;-75
2021/08/26 08:46:17;;;;;;;17.40;5.38;;;16.20;53.40;;;;;;5073955;28;20745;-75
2021/08/26 08:48:43;;;;;;;21.42;6.13;;;15.70;69.40;;;;;;5093439;28;20390;-76
2021/08/26 08:51:10;;;;;;;17.37;6.00;;;15.60;80.10;;;;;;5096128;28;20415;-75
2021/08/26 08:53:36;;;;;;;23.25;5.93;;;15.70;74.20;;;;;;5075686;28;20389;-75
2021/08/26 08:56:04;;;;;;;20.70;6.47;;;15.70;73.40;;;;;;5093979;28;20389;-76
2021/08/26 08:58:38;;;;;;;18.27;6.10;;;15.80;70.70;;;;;;5091942;28;20409;-75
2021/08/26 09:01:04;;;;;;;21.50;7.10;;;16.00;66.80;;;;;;5092032;28;20390;-75
2021/08/26 09:03:30;;;;;;;19.75;5.10;;;16.30;68.20;;;;;;5091278;28;20409;-75
2021/08/26 09:06:00;;;;;;;13.57;4.85;;;16.70;58.70;;;;;;5090973;28;20378;-75
2021/08/26 09:08:31;;;;;;;16.23;5.22;;;16.70;55.60;;;;;;5089656;28;20386;-75
2021/08/26 09:11:12;;;;;;;20.20;6.38;;;16.60;53.40;;;;;;5090710;28;20390;-75
2021/08/26 09:13:39;;;;;;;23.17;7.43;;;16.60;60.10;;;;;;5091129;28;20492;-75
2021/08/26 09:16:06;;;;;;;17.47;7.70;;;16.50;61.20;;;;;;5090893;28;20522;-75
2021/08/26 09:18:31;;;;;;;20.48;8.45;;;16.40;63.20;;;;;;5088502;28;20417;-79
2021/08/26 09:21:06;;;;;;;16.60;8.52;;;16.40;65.70;;;;;;5090772;28;20405;-75
2021/08/26 09:23:34;;;;;;;17.15;7.80;;;16.40;67.70;;;;;;5090609;28;20763;-74
2021/08/26 09:26:20;;;;;;;27.17;7.57;;;16.60;61.40;;;;;;5090470;28;20461;-74
2021/08/26 09:28:47;;;;;;;9.77;3.63;;;16.50;60.20;;;;;;5089911;28;20786;-74
2021/08/26 09:31:19;;;;;;;11.60;4.30;;;16.20;61.30;;;;;;5090551;28;20370;-75
2021/08/26 09:34:03;;;;;;;15.02;5.50;;;15.70;69.40;;;;;;5090132;28;20401;-74
2021/08/26 09:36:31;;;;;;;14.63;4.30;;;15.80;78.50;;;;;;5069427;28;20390;-75
2021/08/26 09:38:58;;;;;;;11.20;4.90;;;15.80;74.70;;;;;;5089700;28;20386;-74
2021/08/26 09:41:44;;;;;;;14.50;5.93;;;15.80;70.80;;;;;;5086655;28;20402;-74
2021/08/26 09:44:12;;;;;;;14.70;6.23;;;15.90;68.80;;;;;;5071878;28;20401;-74
2021/08/26 09:46:37;;;;;;;14.32;6.20;;;16.00;66.60;;;;;;5090876;28;20576;-76
2021/08/26 09:49:06;;;;;;;15.60;5.83;;;16.10;64.00;;;;;;5090262;28;20421;-74
2021/08/26 09:51:31;;;;;;;12.35;5.10;;;16.30;60.60;;;;;;5089769;28;20390;-74
2021/08/26 09:53:57;;;;;;;15.73;6.88;;;16.30;60.10;;;;;;5090301;28;20454;-74
2021/08/26 09:56:23;;;;;;;20.17;6.90;;;16.60;57.20;;;;;;5088103;28;20847;-74
2021/08/26 09:58:54;;;;;;;12.45;5.10;;;16.90;58.30;;;;;;5075959;28;20767;-75
2021/08/26 10:01:21;;;;;;;12.10;5.70;;;17.00;51.80;;;;;;5090491;28;20788;-74
2021/08/26 10:03:48;;;;;;;15.45;6.40;;;17.10;51.60;;;;;;5071210;28;20498;-76
2021/08/26 10:06:15;;;;;;;13.88;5.50;;;17.40;50.20;;;;;;5087447;28;20386;-75
2021/08/26 10:08:44;;;;;;;18.10;5.60;;;17.60;45.80;;;;;;5081879;28;20504;-75
2021/08/26 10:11:10;;;;;;;12.20;5.60;;;17.60;47.70;;;;;;5071504;28;20381;-75
2021/08/26 10:13:38;;;;;;;15.05;6.40;;;17.80;47.50;;;;;;5089909;28;20480;-75
2021/08/26 10:16:05;;;;;;;13.68;5.88;;;18.30;42.20;;;;;;5089805;28;20471;-75
2021/08/26 10:18:31;;;;;;;18.52;6.80;;;18.60;40.40;;;;;;5089111;28;20394;-76
2021/08/26 10:20:57;;;;;;;13.73;6.82;;;19.10;38.30;;;;;;5089623;28;20511;-74
2021/08/26 10:23:24;;;;;;;17.73;6.70;;;19.40;37.70;;;;;;5089549;28;20491;-75
2021/08/26 10:25:52;;;;;;;15.98;6.95;;;19.60;39.00;;;;;;5089580;28;20867;-74
2021/08/26 10:28:18;;;;;;;13.15;6.32;;;19.60;35.60;;;;;;5089149;28;20463;-74
2021/08/26 10:30:44;;;;;;;12.63;4.50;;;19.20;35.50;;;;;;5086581;28;20466;-74
2021/08/26 10:33:16;;;;;;;9.55;4.13;;;18.90;37.00;;;;;;5078518;28;20401;-76
2021/08/26 10:35:51;;;;;;;12.38;4.40;;;18.50;37.80;;;;;;5084874;28;20406;-74
2021/08/26 10:38:21;;;;;;;12.73;5.10;;;18.70;38.50;;;;;;5077679;28;20390;-75
2021/08/26 10:40:47;;;;;;;12.40;4.10;;;18.90;37.80;;;;;;5075710;28;20392;-76
2021/08/26 10:43:35;;;;;;;11.53;4.10;;;18.90;38.90;;;;;;5079001;28;20940;-75
2021/08/26 10:46:06;;;;;;;13.95;4.20;;;18.80;37.50;;;;;;5075932;28;21090;-74
2021/08/26 10:48:33;;;;;;;14.17;4.10;;;18.90;38.50;;;;;;5091463;28;20517;-74
2021/08/26 10:51:06;;;;;;;9.63;3.38;;;18.80;39.10;;;;;;5094035;28;20374;-74
2021/08/26 10:53:37;;;;;;;14.93;4.43;;;18.50;37.20;;;;;;5093545;28;20827;-74
2021/08/26 10:56:16;;;;;;;10.45;4.30;;;18.40;38.80;;;;;;5092736;28;20405;-74
2021/08/26 10:58:43;;;;;;;14.10;4.20;;;18.60;39.10;;;;;;5092855;28;20394;-74
2021/08/26 11:01:10;;;;;;;14.77;5.05;;;18.90;38.20;;;;;;5093474;28;20390;-75
2021/08/26 11:03:41;;;;;;;10.63;4.00;;;19.20;35.30;;;;;;5093040;28;20448;-75
2021/08/26 11:06:16;;;;;;;11.25;3.97;;;19.20;33.70;;;;;;5092929;28;20398;-75
2021/08/26 11:08:47;;;;;;;16.25;4.75;;;19.30;35.10;;;;;;5092545;28;20442;-75
2021/08/26 11:11:37;;;;;;;11.30;4.60;;;19.70;34.30;;;;;;5093241;28;20848;-75
2021/08/26 11:14:03;;;;;;;8.53;3.63;;;19.90;31.80;;;;;;5053196;28;20461;-74
2021/08/26 11:16:28;;;;;;;10.50;4.10;;;19.40;33.20;;;;;;5090956;28;20390;-75
2021/08/26 11:18:55;;;;;;;12.43;3.85;;;19.20;34.60;;;;;;5092119;28;20396;-74
2021/08/26 11:24:14;;;;;;;8.40;3.80;;;19.60;33.90;;;;;;5072702;28;20443;-73
2021/08/26 11:26:48;;;;;;;6.30;3.25;;;19.70;33.10;;;;;;5078821;28;20849;-76
2021/08/26 11:29:25;;;;;;;12.07;4.00;;;19.80;32.70;;;;;;5086324;28;20393;-76
2021/08/26 11:31:53;;;;;;;10.10;3.97;;;19.90;30.90;;;;;;5095300;28;20397;-74
2021/08/26 11:34:27;;;;;;;6.40;3.13;;;19.90;31.20;;;;;;5079466;28;20398;-74
2021/08/26 11:37:08;;;;;;;10.73;4.18;;;19.40;32.70;;;;;;5083078;28;20412;-76
2021/08/26 11:39:45;;;;;;;10.55;4.75;;;19.50;31.70;;;;;;5088766;28;20475;-73
2021/08/26 11:42:31;;;;;;;8.70;3.60;;;19.40;31.70;;;;;;5077777;28;20398;-74
2021/08/26 11:45:24;;;;;;;7.90;3.20;;;19.50;30.80;;;;;;5091875;28;20506;-75
2021/08/26 11:47:54;;;;;;;12.65;4.43;;;19.70;31.40;;;;;;5073974;28;20496;-75
2021/08/26 11:50:30;;;;;;;12.30;3.28;;;20.00;29.50;;;;;;5093257;28;20385;-74
2021/08/26 11:53:02;;;;;;;11.00;3.30;;;19.90;29.40;;;;;;5092818;28;20846;-74
2021/08/26 11:55:39;;;;;;;11.05;3.20;;;20.10;28.90;;;;;;5092813;28;20429;-74
2021/08/26 11:58:08;;;;;;;13.93;3.70;;;20.30;28.80;;;;;;5092475;28;20421;-76
2021/08/26 12:00:38;;;;;;;9.45;3.33;;;20.40;28.80;;;;;;5092775;28;20467;-74
2021/08/26 12:03:04;;;;;;;12.13;4.20;;;20.40;28.00;;;;;;5093446;28;20478;-75
2021/08/26 12:05:30;;;;;;;16.07;3.80;;;20.20;28.10;;;;;;5093536;28;20398;-75
2021/08/26 12:07:55;;;;;;;9.50;3.38;;;20.00;29.10;;;;;;5092688;28;20743;-75
2021/08/26 12:10:39;;;;;;;13.20;3.95;;;20.00;29.30;;;;;;5067615;28;20391;-77
2021/08/26 12:13:21;;;;;;;12.98;3.80;;;20.20;29.80;;;;;;5079589;28;20419;-75
2021/08/26 12:15:49;;;;;;;11.20;3.55;;;20.00;29.00;;;;;;5091902;28;20390;-75
2021/08/26 12:18:18;;;;;;;9.32;3.20;;;20.00;28.30;;;;;;5091703;28;20866;-75
2021/08/26 12:20:52;;;;;;;9.45;3.50;;;20.00;27.10;;;;;;5091552;28;20397;-75
2021/08/26 12:23:20;;;;;;;9.57;3.10;;;20.10;27.20;;;;;;5091862;28;20426;-75
2021/08/26 12:26:16;;;;;;;12.95;3.90;;;20.10;27.50;;;;;;5091340;28;20466;-75
2021/08/26 12:28:57;;;;;;;15.00;4.00;;;20.20;27.70;;;;;;5090976;28;20413;-75
2021/08/26 12:31:23;;;;;;;8.43;3.20;;;20.60;27.20;;;;;;5092830;28;20758;-75
2021/08/26 12:34:27;;;;;;;12.07;3.70;;;20.50;27.10;;;;;;5092237;28;20457;-76
2021/08/26 12:37:03;;;;;;;13.75;4.25;;;20.60;27.20;;;;;;5087120;28;20386;-75
2021/08/26 12:39:28;;;;;;;16.15;4.00;;;20.80;26.70;;;;;;5090114;28;20375;-75
2021/08/26 12:42:09;;;;;;;8.50;3.78;;;21.10;25.30;;;;;;5090874;28;20444;-76
2021/08/26 12:44:36;;;;;;;10.75;3.80;;;21.00;25.80;;;;;;5073046;28;20466;-76
2021/08/26 12:47:06;;;;;;;9.45;3.50;;;20.80;25.70;;;;;;5091250;28;20503;-75